Time;durP1;ratioP1;P1;durP2;ratioP2;P2;SDS_P1;SDS_P2;PMS_P1;PMS_P2;Temp;Humidity;BMP_temperature;BMP_pressure;BME280_temperature;BME280_humidity;BME280_pressure;Samples;Min_cycle;Max_cycle;Signal;HPM_P1;HPM_P2
2023/07/11 00:00:43;;;;;;;7.43;3.10;;;;;;;;;;5024777;28;20394;-80
2023/07/11 00:03:10;;;;;;;5.03;3.45;;;;;;;;;;5035287;28;20432;-80
2023/07/11 00:05:36;;;;;;;5.22;3.28;;;;;;;;;;5032400;28;20029;-79
2023/07/11 00:08:01;;;;;;;6.65;3.10;;;;;;;;;;5032079;28;20044;-79
2023/07/11 00:10:27;;;;;;;5.32;3.38;;;;;;;;;;5038250;28;20515;-79
2023/07/11 00:12:52;;;;;;;6.30;3.35;;;;;;;;;;5026804;28;20047;-80
2023/07/11 00:15:18;;;;;;;6.45;3.30;;;;;;;;;;5014617;28;20040;-80
2023/07/11 00:17:47;;;;;;;5.50;3.50;;;;;;;;;;5018094;28;20033;-81
2023/07/11 00:20:14;;;;;;;4.90;3.47;;;;;;;;;;5032854;28;20485;-80
2023/07/11 00:22:40;;;;;;;5.82;3.47;;;;;;;;;;5034441;28;20112;-80
2023/07/11 00:25:06;;;;;;;5.88;3.40;;;;;;;;;;5018907;28;20042;-80
2023/07/11 00:27:31;;;;;;;5.82;3.13;;;;;;;;;;5032999;28;20033;-79
2023/07/11 00:29:57;;;;;;;5.15;3.10;;;;;;;;;;5016757;28;20860;-80
2023/07/11 00:32:22;;;;;;;5.70;3.08;;;;;;;;;;5019455;28;20504;-80
2023/07/11 00:34:48;;;;;;;8.30;3.40;;;;;;;;;;5039459;28;20040;-80
2023/07/11 00:37:14;;;;;;;5.57;3.20;;;;;;;;;;5019543;28;20043;-80
2023/07/11 00:39:59;;;;;;;5.97;3.22;;;;;;;;;;5040279;28;20444;-80
2023/07/11 00:42:25;;;;;;;7.32;3.78;;;;;;;;;;4976374;28;20042;-79
2023/07/11 00:45:01;;;;;;;5.53;3.30;;;;;;;;;;4965226;28;20039;-80
2023/07/11 00:47:27;;;;;;;5.55;3.20;;;;;;;;;;4947235;28;20462;-80
2023/07/11 00:49:59;;;;;;;6.25;3.50;;;;;;;;;;4976016;28;20042;-80
2023/07/11 00:52:26;;;;;;;5.43;3.45;;;;;;;;;;4965157;28;20164;-79
2023/07/11 00:54:55;;;;;;;6.28;3.35;;;;;;;;;;4947484;28;20406;-80
2023/07/11 00:57:24;;;;;;;7.03;3.63;;;;;;;;;;4948954;28;20035;-80
2023/07/11 00:59:51;;;;;;;4.93;3.38;;;;;;;;;;4944937;28;20121;-80
2023/07/11 01:02:26;;;;;;;5.25;3.90;;;;;;;;;;4966323;28;20510;-79
2023/07/11 01:04:51;;;;;;;5.55;3.33;;;;;;;;;;4960000;28;20050;-79
2023/07/11 01:07:21;;;;;;;7.88;3.53;;;;;;;;;;4947643;28;20039;-79
2023/07/11 01:09:47;;;;;;;7.07;3.60;;;;;;;;;;4940940;28;20046;-79
2023/07/11 01:12:13;;;;;;;5.20;3.53;;;;;;;;;;4964006;28;20438;-79
2023/07/11 01:14:44;;;;;;;7.47;3.60;;;;;;;;;;4966763;28;20038;-80
2023/07/11 01:17:22;;;;;;;6.18;3.53;;;;;;;;;;4974344;28;20125;-80
2023/07/11 01:19:47;;;;;;;;;;;;;;;;;;5005597;28;20061;-80
2023/07/11 01:22:18;;;;;;;5.90;3.50;;;;;;;;;;5016669;28;20411;-79
2023/07/11 01:24:43;;;;;;;6.47;3.72;;;;;;;;;;5024232;28;20091;-79
2023/07/11 01:27:09;;;;;;;6.93;3.70;;;;;;;;;;5031041;28;20036;-80
2023/07/11 01:29:35;;;;;;;5.75;3.53;;;;;;;;;;5019190;28;20441;-80
2023/07/11 01:32:00;;;;;;;8.23;3.65;;;;;;;;;;5041865;28;20095;-80
2023/07/11 01:34:26;;;;;;;7.70;3.63;;;;;;;;;;5032628;28;20067;-80
2023/07/11 01:36:51;;;;;;;6.00;3.47;;;;;;;;;;5027918;28;20559;-80
2023/07/11 01:39:17;;;;;;;6.70;3.63;;;;;;;;;;5014620;28;20380;-80
2023/07/11 01:41:43;;;;;;;5.95;3.80;;;;;;;;;;5020547;28;20037;-80
2023/07/11 01:44:11;;;;;;;5.88;3.90;;;;;;;;;;5014817;28;20045;-80
2023/07/11 01:46:36;;;;;;;6.13;3.53;;;;;;;;;;5010822;28;20030;-79
2023/07/11 01:49:02;;;;;;;6.55;3.50;;;;;;;;;;5024542;28;20453;-80
2023/07/11 01:51:28;;;;;;;6.38;3.90;;;;;;;;;;5032639;28;20071;-80
2023/07/11 01:53:53;;;;;;;6.63;3.92;;;;;;;;;;5040513;28;20037;-80
2023/07/11 01:56:19;;;;;;;6.88;3.80;;;;;;;;;;5045519;28;20576;-81
2023/07/11 01:58:45;;;;;;;5.60;3.45;;;;;;;;;;5037474;28;20029;-80
2023/07/11 02:01:10;;;;;;;7.15;4.53;;;;;;;;;;5038354;28;20042;-80
2023/07/11 02:03:36;;;;;;;6.78;4.00;;;;;;;;;;5037184;28;20438;-80
2023/07/11 02:06:01;;;;;;;6.28;3.65;;;;;;;;;;5033590;28;20044;-79
2023/07/11 02:08:26;;;;;;;7.72;4.22;;;;;;;;;;5017638;28;20051;-79
2023/07/11 02:10:52;;;;;;;7.97;4.25;;;;;;;;;;5019739;28;21203;-79
2023/07/11 02:13:17;;;;;;;6.70;3.75;;;;;;;;;;5017034;28;20062;-79
2023/07/11 02:15:43;;;;;;;6.10;3.80;;;;;;;;;;5027080;28;20032;-79
2023/07/11 02:18:08;;;;;;;7.97;4.10;;;;;;;;;;5028092;28;20040;-79
2023/07/11 02:20:40;;;;;;;7.00;4.18;;;;;;;;;;5022231;28;20033;-79
2023/07/11 02:23:06;;;;;;;6.55;4.15;;;;;;;;;;5050409;28;20508;-79
2023/07/11 02:25:31;;;;;;;6.75;4.40;;;;;;;;;;5038182;28;20049;-79
2023/07/11 02:27:56;;;;;;;7.32;4.93;;;;;;;;;;5021807;28;20127;-79
2023/07/11 02:30:22;;;;;;;9.55;5.18;;;;;;;;;;5027192;28;20036;-79
2023/07/11 02:32:47;;;;;;;8.57;6.20;;;;;;;;;;5051710;28;20037;-79
2023/07/11 02:35:13;;;;;;;8.77;6.68;;;;;;;;;;5032642;28;20067;-79
2023/07/11 02:37:38;;;;;;;8.63;6.70;;;;;;;;;;5037124;28;20067;-79
2023/07/11 02:40:04;;;;;;;7.50;6.30;;;;;;;;;;5049761;28;20049;-79
2023/07/11 02:42:30;;;;;;;7.72;4.90;;;;;;;;;;5022173;28;20037;-79
2023/07/11 02:44:55;;;;;;;7.95;4.50;;;;;;;;;;5008784;28;20044;-79
2023/07/11 02:47:20;;;;;;;6.43;4.07;;;;;;;;;;5020268;28;20051;-79
2023/07/11 02:49:48;;;;;;;7.22;4.70;;;;;;;;;;5022091;28;20041;-79
2023/07/11 02:52:14;;;;;;;6.57;4.03;;;;;;;;;;5018615;28;20037;-79
2023/07/11 02:54:39;;;;;;;6.03;4.38;;;;;;;;;;5035288;28;20033;-79
2023/07/11 02:57:07;;;;;;;5.70;4.00;;;;;;;;;;5034264;28;20050;-79
2023/07/11 02:59:33;;;;;;;7.25;4.15;;;;;;;;;;5016461;28;20045;-79
2023/07/11 03:01:58;;;;;;;5.07;4.00;;;;;;;;;;5020234;28;20048;-79
2023/07/11 03:04:25;;;;;;;9.07;4.38;;;;;;;;;;5026918;28;20532;-79
2023/07/11 03:06:54;;;;;;;6.32;4.38;;;;;;;;;;5051229;28;20547;-81
2023/07/11 03:09:19;;;;;;;6.68;4.13;;;;;;;;;;5032003;28;20034;-79
2023/07/11 03:11:44;;;;;;;8.32;4.40;;;;;;;;;;5038007;28;20045;-80
2023/07/11 03:14:10;;;;;;;6.00;4.10;;;;;;;;;;5037939;28;20429;-79
2023/07/11 03:16:36;;;;;;;6.82;4.15;;;;;;;;;;5039684;28;20033;-80
2023/07/11 03:19:01;;;;;;;6.53;4.25;;;;;;;;;;5035308;28;20035;-80
2023/07/11 03:21:26;;;;;;;6.93;4.28;;;;;;;;;;5021505;28;20048;-80
2023/07/11 03:23:52;;;;;;;6.60;4.30;;;;;;;;;;5030087;28;20207;-80
2023/07/11 03:26:20;;;;;;;6.55;4.65;;;;;;;;;;5032668;28;20041;-80
2023/07/11 03:28:45;;;;;;;6.88;4.28;;;;;;;;;;5022919;28;20033;-80
2023/07/11 03:31:11;;;;;;;5.88;4.10;;;;;;;;;;5017719;28;20039;-79
2023/07/11 03:33:36;;;;;;;8.93;4.50;;;;;;;;;;5048878;28;20051;-80
2023/07/11 03:36:02;;;;;;;6.60;4.25;;;;;;;;;;5042753;28;20734;-80
2023/07/11 03:38:27;;;;;;;6.93;4.32;;;;;;;;;;5011317;28;20258;-79
2023/07/11 03:40:53;;;;;;;6.43;4.00;;;;;;;;;;5040216;28;20033;-80
2023/07/11 03:43:19;;;;;;;7.10;4.28;;;;;;;;;;5034564;28;20064;-80
2023/07/11 03:45:48;;;;;;;7.15;4.15;;;;;;;;;;5031933;28;20448;-80
2023/07/11 03:48:16;;;;;;;5.93;4.18;;;;;;;;;;5020850;28;20039;-80
2023/07/11 03:50:42;;;;;;;5.93;4.18;;;;;;;;;;5033275;28;20232;-80
2023/07/11 03:53:08;;;;;;;6.45;4.38;;;;;;;;;;5023663;28;20487;-80
2023/07/11 03:55:33;;;;;;;7.15;4.45;;;;;;;;;;5025365;28;20029;-80
2023/07/11 03:57:59;;;;;;;6.28;4.20;;;;;;;;;;5018914;28;20114;-80
2023/07/11 04:00:25;;;;;;;6.25;4.20;;;;;;;;;;5037008;28;20528;-81
2023/07/11 04:02:53;;;;;;;7.00;4.50;;;;;;;;;;5022507;28;20025;-80
2023/07/11 04:05:19;;;;;;;7.03;4.55;;;;;;;;;;5015836;28;20063;-80
2023/07/11 04:07:44;;;;;;;6.80;4.60;;;;;;;;;;5030957;28;20040;-80
2023/07/11 04:10:12;;;;;;;7.28;4.85;;;;;;;;;;5034026;28;20136;-80
2023/07/11 04:12:37;;;;;;;;;;;;;;;;;;5035893;28;20037;-80
2023/07/11 04:15:03;;;;;;;6.70;4.40;;;;;;;;;;5017624;28;19923;-80
2023/07/11 04:17:28;;;;;;;8.20;4.53;;;;;;;;;;5020469;28;20041;-80
2023/07/11 04:19:54;;;;;;;6.05;4.25;;;;;;;;;;5017512;28;20025;-80
2023/07/11 04:22:19;;;;;;;6.45;4.38;;;;;;;;;;5034246;28;20033;-81
2023/07/11 04:24:44;;;;;;;7.68;4.53;;;;;;;;;;5034462;28;20119;-80
2023/07/11 04:27:10;;;;;;;6.95;4.43;;;;;;;;;;5030735;28;20048;-80
2023/07/11 04:29:36;;;;;;;8.60;4.70;;;;;;;;;;5049565;28;20033;-80
2023/07/11 04:32:02;;;;;;;6.82;4.30;;;;;;;;;;5041053;28;20029;-80
2023/07/11 04:34:27;;;;;;;6.60;4.28;;;;;;;;;;5041678;28;20029;-80
2023/07/11 04:36:53;;;;;;;7.40;4.72;;;;;;;;;;5008748;28;20091;-80
2023/07/11 04:39:18;;;;;;;7.18;4.60;;;;;;;;;;5019992;28;20025;-80
2023/07/11 04:41:43;;;;;;;6.45;4.95;;;;;;;;;;5026468;28;20036;-80
2023/07/11 04:44:11;;;;;;;7.03;4.70;;;;;;;;;;5033221;28;20035;-85
2023/07/11 04:46:37;;;;;;;6.95;4.57;;;;;;;;;;5025567;28;20056;-84
2023/07/11 04:49:02;;;;;;;8.25;5.32;;;;;;;;;;5022828;28;20029;-84
2023/07/11 04:51:28;;;;;;;7.68;4.43;;;;;;;;;;5020789;28;20033;-80
2023/07/11 04:53:53;;;;;;;6.82;4.80;;;;;;;;;;5030410;28;20120;-80
2023/07/11 04:56:18;;;;;;;8.55;5.00;;;;;;;;;;5038682;28;20393;-78
2023/07/11 04:58:44;;;;;;;9.27;4.80;;;;;;;;;;5035068;28;20384;-80
2023/07/11 05:01:12;;;;;;;7.65;5.13;;;;;;;;;;5009818;28;20045;-77
2023/07/11 05:03:38;;;;;;;7.20;4.60;;;;;;;;;;5048306;28;20037;-78
2023/07/11 05:06:05;;;;;;;6.60;4.13;;;;;;;;;;5030483;28;20469;-79
2023/07/11 05:08:31;;;;;;;6.93;4.78;;;;;;;;;;5047101;28;20442;-79
2023/07/11 05:11:12;;;;;;;6.97;4.30;;;;;;;;;;5047626;28;20041;-78
2023/07/11 05:13:38;;;;;;;7.10;4.95;;;;;;;;;;5030529;28;20404;-78
2023/07/11 05:16:10;;;;;;;6.80;4.40;;;;;;;;;;5016632;28;20036;-79
2023/07/11 05:18:40;;;;;;;8.40;4.38;;;;;;;;;;5022935;28;20481;-78
2023/07/11 05:21:07;;;;;;;7.78;4.47;;;;;;;;;;5009021;28;20041;-77
2023/07/11 05:23:33;;;;;;;5.57;4.05;;;;;;;;;;5016297;28;20524;-78
2023/07/11 05:25:58;;;;;;;6.43;4.35;;;;;;;;;;5022299;28;20053;-77
2023/07/11 05:28:25;;;;;;;7.40;4.13;;;;;;;;;;5007031;28;20034;-78
2023/07/11 05:30:51;;;;;;;7.10;3.78;;;;;;;;;;4997658;28;20103;-78
2023/07/11 05:33:17;;;;;;;5.47;3.78;;;;;;;;;;5018982;28;20128;-78
2023/07/11 05:35:51;;;;;;;6.45;3.65;;;;;;;;;;5049144;28;20112;-81
2023/07/11 05:38:16;;;;;;;6.30;3.42;;;;;;;;;;5035300;28;20837;-82
2023/07/11 05:40:42;;;;;;;5.00;3.28;;;;;;;;;;5034715;28;20041;-78
2023/07/11 05:43:07;;;;;;;5.65;3.10;;;;;;;;;;4995465;28;20447;-81
2023/07/11 05:45:33;;;;;;;6.95;2.83;;;;;;;;;;5051453;28;22667;-78
2023/07/11 05:47:59;;;;;;;5.10;2.67;;;;;;;;;;5024529;28;20057;-78
2023/07/11 05:50:27;;;;;;;4.45;2.38;;;;;;;;;;5016224;28;20048;-78
2023/07/11 05:52:52;;;;;;;5.88;2.25;;;;;;;;;;5028359;28;20045;-82
2023/07/11 05:55:17;;;;;;;4.97;2.42;;;;;;;;;;5034953;28;20037;-80
2023/07/11 05:57:43;;;;;;;5.05;2.45;;;;;;;;;;5020341;28;20037;-79
2023/07/11 06:00:12;;;;;;;4.00;2.22;;;;;;;;;;5037411;28;20037;-78
2023/07/11 06:02:37;;;;;;;6.35;2.42;;;;;;;;;;5009728;28;21082;-79
2023/07/11 06:05:03;;;;;;;5.65;2.20;;;;;;;;;;5019847;28;20029;-78
2023/07/11 06:07:28;;;;;;;4.43;2.10;;;;;;;;;;5022418;28;20040;-79
2023/07/11 06:09:55;;;;;;;5.00;2.10;;;;;;;;;;5043298;28;20037;-79
2023/07/11 06:12:21;;;;;;;5.53;2.20;;;;;;;;;;5027838;28;20064;-79
2023/07/11 06:14:49;;;;;;;4.32;2.03;;;;;;;;;;5041081;28;20464;-79
2023/07/11 06:17:14;;;;;;;4.60;2.17;;;;;;;;;;5033686;28;20104;-79
2023/07/11 06:19:39;;;;;;;4.57;2.40;;;;;;;;;;5031384;28;20695;-80
2023/07/11 06:22:05;;;;;;;4.57;2.40;;;;;;;;;;5026876;28;20039;-80
2023/07/11 06:24:38;;;;;;;4.38;2.30;;;;;;;;;;5052249;28;20033;-79
2023/07/11 06:27:04;;;;;;;4.45;2.30;;;;;;;;;;5022716;28;20037;-79
2023/07/11 06:29:32;;;;;;;3.25;2.10;;;;;;;;;;5034431;28;20554;-79
2023/07/11 06:31:58;;;;;;;6.38;2.58;;;;;;;;;;5037043;28;20083;-79
2023/07/11 06:34:23;;;;;;;4.03;2.17;;;;;;;;;;5033096;28;20431;-79
2023/07/11 06:37:05;;;;;;;5.93;2.10;;;;;;;;;;5016860;28;20060;-80
2023/07/11 06:39:30;;;;;;;5.15;2.80;;;;;;;;;;5001026;28;20041;-80
2023/07/11 06:41:58;;;;;;;4.40;2.20;;;;;;;;;;5048643;28;20041;-79
2023/07/11 06:44:24;;;;;;;5.35;2.22;;;;;;;;;;5026639;28;20503;-79
2023/07/11 06:46:49;;;;;;;3.47;1.98;;;;;;;;;;5009502;28;20086;-79
2023/07/11 06:49:20;;;;;;;3.45;1.90;;;;;;;;;;5034565;28;20452;-79
2023/07/11 06:51:48;;;;;;;3.50;1.80;;;;;;;;;;5042159;28;20136;-80
2023/07/11 06:54:22;;;;;;;4.75;1.90;;;;;;;;;;5031693;28;20056;-78
2023/07/11 06:56:48;;;;;;;3.97;1.85;;;;;;;;;;5032047;28;20496;-78
2023/07/11 06:59:21;;;;;;;4.55;1.80;;;;;;;;;;5004853;28;20038;-80
2023/07/11 07:01:48;;;;;;;3.67;1.70;;;;;;;;;;5028836;28;20132;-79
2023/07/11 07:04:14;;;;;;;3.40;1.40;;;;;;;;;;5036431;28;20036;-80
2023/07/11 07:06:43;;;;;;;5.78;1.50;;;;;;;;;;5033685;28;20040;-80
2023/07/11 07:09:09;;;;;;;3.30;1.50;;;;;;;;;;5033882;28;20047;-79
2023/07/11 07:11:35;;;;;;;4.75;1.33;;;;;;;;;;5017905;28;20045;-79
2023/07/11 07:14:02;;;;;;;4.07;1.55;;;;;;;;;;5018053;28;20084;-79
2023/07/11 07:16:30;;;;;;;;;;;;;;;;;;5019104;28;20039;-80
2023/07/11 07:18:56;;;;;;;3.88;1.60;;;;;;;;;;5033717;28;20353;-80
2023/07/11 07:21:30;;;;;;;4.47;1.58;;;;;;;;;;5033309;28;20038;-79
2023/07/11 07:23:56;;;;;;;3.90;1.70;;;;;;;;;;5025218;28;20172;-78
2023/07/11 07:26:21;;;;;;;4.78;1.70;;;;;;;;;;5032812;28;21056;-79
2023/07/11 07:28:47;;;;;;;3.88;1.50;;;;;;;;;;5040493;28;20041;-79
2023/07/11 07:31:13;;;;;;;4.05;1.73;;;;;;;;;;5043110;28;20033;-79
2023/07/11 07:33:40;;;;;;;3.30;1.33;;;;;;;;;;5037081;28;20033;-79
2023/07/11 07:36:07;;;;;;;4.28;1.60;;;;;;;;;;5025218;28;20029;-80
2023/07/11 07:38:33;;;;;;;;;;;;;;;;;;5018845;28;20032;-80
2023/07/11 07:41:01;;;;;;;3.80;1.48;;;;;;;;;;5023479;28;19923;-80
2023/07/11 07:43:27;;;;;;;5.13;1.92;;;;;;;;;;5049123;28;20037;-81
2023/07/11 07:45:54;;;;;;;3.70;1.58;;;;;;;;;;5020638;28;20516;-80
2023/07/11 07:48:20;;;;;;;4.33;1.60;;;;;;;;;;5033488;28;20033;-79
2023/07/11 07:50:46;;;;;;;4.78;1.40;;;;;;;;;;5032120;28;20037;-79
2023/07/11 07:53:14;;;;;;;4.72;1.80;;;;;;;;;;5007359;28;20041;-79
2023/07/11 07:55:40;;;;;;;3.72;1.50;;;;;;;;;;5010851;28;20029;-79
2023/07/11 07:58:06;;;;;;;4.95;1.70;;;;;;;;;;5033350;28;20079;-79
2023/07/11 08:00:34;;;;;;;3.15;1.50;;;;;;;;;;5018691;28;20033;-83
2023/07/11 08:02:59;;;;;;;4.25;1.50;;;;;;;;;;5024674;28;20037;-80
2023/07/11 08:05:25;;;;;;;6.30;1.60;;;;;;;;;;5023022;28;20033;-81
2023/07/11 08:07:58;;;;;;;3.92;1.50;;;;;;;;;;5022441;28;20082;-81
2023/07/11 08:10:23;;;;;;;6.70;1.73;;;;;;;;;;5021201;28;20048;-81
2023/07/11 08:12:49;;;;;;;4.10;1.60;;;;;;;;;;4993109;28;20033;-81
2023/07/11 08:15:14;;;;;;;4.10;1.52;;;;;;;;;;5021156;28;20040;-81
2023/07/11 08:17:45;;;;;;;2.47;1.10;;;;;;;;;;5010735;28;20116;-81
2023/07/11 08:20:11;;;;;;;5.32;1.48;;;;;;;;;;5028897;28;20037;-81
2023/07/11 08:22:37;;;;;;;2.70;0.90;;;;;;;;;;5018946;28;20406;-81
2023/07/11 08:25:06;;;;;;;2.67;1.13;;;;;;;;;;5025042;28;20029;-81
2023/07/11 08:27:31;;;;;;;3.63;1.10;;;;;;;;;;4982508;28;20422;-81
2023/07/11 08:29:57;;;;;;;3.40;1.05;;;;;;;;;;5026836;28;20033;-81
2023/07/11 08:32:22;;;;;;;2.55;0.70;;;;;;;;;;5035116;28;20032;-80
2023/07/11 08:34:48;;;;;;;3.35;1.00;;;;;;;;;;5019398;28;20503;-81
2023/07/11 08:37:13;;;;;;;2.53;0.80;;;;;;;;;;5018473;28;20604;-82
2023/07/11 08:39:39;;;;;;;2.88;0.95;;;;;;;;;;5035118;28;20103;-81
2023/07/11 08:42:27;;;;;;;4.15;0.82;;;;;;;;;;5032942;28;20036;-81
2023/07/11 08:45:00;;;;;;;3.28;0.90;;;;;;;;;;5047500;28;20492;-81
2023/07/11 08:47:33;;;;;;;3.10;0.95;;;;;;;;;;5018188;28;20048;-81
2023/07/11 08:50:05;;;;;;;4.18;1.00;;;;;;;;;;5033899;28;20563;-81
2023/07/11 08:52:31;;;;;;;2.97;0.98;;;;;;;;;;5033510;28;20029;-82
2023/07/11 08:55:06;;;;;;;3.43;0.90;;;;;;;;;;5048638;28;20032;-81
2023/07/11 08:57:36;;;;;;;3.20;0.88;;;;;;;;;;5026973;28;20292;-81
2023/07/11 09:00:06;;;;;;;3.38;0.70;;;;;;;;;;5025328;28;20548;-81
2023/07/11 09:02:34;;;;;;;2.88;0.90;;;;;;;;;;5023857;28;20095;-82
2023/07/11 09:05:01;;;;;;;4.97;1.17;;;;;;;;;;5029931;28;20129;-81
2023/07/11 09:07:40;;;;;;;2.97;1.00;;;;;;;;;;5037946;28;20497;-81
2023/07/11 09:10:38;;;;;;;3.47;1.10;;;;;;;;;;5040062;28;20029;-81
2023/07/11 09:13:20;;;;;;;6.00;1.00;;;;;;;;;;5053570;28;20388;-81
2023/07/11 09:16:08;;;;;;;3.20;1.02;;;;;;;;;;5023502;28;20033;-81
2023/07/11 09:18:59;;;;;;;4.85;1.35;;;;;;;;;;5032571;28;20044;-81
2023/07/11 09:21:54;;;;;;;3.65;1.00;;;;;;;;;;5041509;28;20052;-81
2023/07/11 09:24:31;;;;;;;5.68;1.27;;;;;;;;;;5039359;28;20029;-81
2023/07/11 09:27:01;;;;;;;3.22;1.00;;;;;;;;;;5033697;28;20036;-81
2023/07/11 09:29:27;;;;;;;3.42;1.10;;;;;;;;;;5028370;28;20061;-81
2023/07/11 09:31:57;;;;;;;3.60;1.13;;;;;;;;;;5022673;28;20468;-81
2023/07/11 09:34:23;;;;;;;2.55;0.93;;;;;;;;;;5022785;28;20481;-81
2023/07/11 09:36:49;;;;;;;2.92;1.00;;;;;;;;;;5022581;28;20040;-81
2023/07/11 09:39:16;;;;;;;2.40;1.00;;;;;;;;;;5023814;28;20053;-82
2023/07/11 09:42:09;;;;;;;3.78;1.00;;;;;;;;;;5033530;28;20086;-81
2023/07/11 09:44:35;;;;;;;3.88;1.08;;;;;;;;;;5039861;28;20182;-81
2023/07/11 09:47:19;;;;;;;4.50;1.10;;;;;;;;;;5019152;28;20033;-82
2023/07/11 09:49:47;;;;;;;4.07;1.25;;;;;;;;;;5023951;28;20120;-83
2023/07/11 09:52:21;;;;;;;3.78;1.20;;;;;;;;;;5027600;28;20425;-83
2023/07/11 09:54:47;;;;;;;4.60;1.05;;;;;;;;;;5034886;28;20554;-83
2023/07/11 09:57:13;;;;;;;3.03;1.13;;;;;;;;;;5036154;28;20038;-81
2023/07/11 09:59:43;;;;;;;3.07;1.00;;;;;;;;;;5021257;28;20039;-83
2023/07/11 10:02:16;;;;;;;3.42;1.20;;;;;;;;;;5027821;28;20040;-82
2023/07/11 10:04:42;;;;;;;3.05;1.02;;;;;;;;;;5036943;28;20478;-82
2023/07/11 10:07:13;;;;;;;3.23;0.93;;;;;;;;;;5023688;28;20033;-83
2023/07/11 10:09:46;;;;;;;2.92;0.90;;;;;;;;;;5035927;28;20036;-82
2023/07/11 10:12:24;;;;;;;3.90;1.17;;;;;;;;;;5024845;28;20459;-82
2023/07/11 10:15:15;;;;;;;2.83;0.90;;;;;;;;;;5036131;28;20489;-82
2023/07/11 10:17:43;;;;;;;3.65;1.10;;;;;;;;;;5034441;28;20060;-82
2023/07/11 10:20:18;;;;;;;4.65;1.48;;;;;;;;;;5038737;28;20030;-82
2023/07/11 10:22:47;;;;;;;4.47;1.30;;;;;;;;;;5052651;28;20403;-82
2023/07/11 10:25:18;;;;;;;3.10;1.10;;;;;;;;;;5034289;28;20037;-83
2023/07/11 10:27:50;;;;;;;3.40;1.00;;;;;;;;;;5031577;28;20361;-82
2023/07/11 10:30:20;;;;;;;3.55;1.02;;;;;;;;;;5027045;28;20037;-82
2023/07/11 10:33:29;;;;;;;2.70;0.80;;;;;;;;;;5034450;28;20038;-82
2023/07/11 10:36:08;;;;;;;5.30;1.25;;;;;;;;;;5025994;28;20037;-83
2023/07/11 10:38:56;;;;;;;2.95;1.00;;;;;;;;;;5034537;28;20887;-82
2023/07/11 10:41:53;;;;;;;3.60;1.00;;;;;;;;;;5027178;28;20033;-82
2023/07/11 10:44:25;;;;;;;3.22;1.10;;;;;;;;;;5025139;28;20044;-82
2023/07/11 10:46:52;;;;;;;2.83;1.00;;;;;;;;;;5035605;28;20025;-83
2023/07/11 10:49:44;;;;;;;2.63;0.90;;;;;;;;;;5025672;28;20414;-83
2023/07/11 10:52:24;;;;;;;3.50;1.00;;;;;;;;;;5020184;28;20043;-82
2023/07/11 10:55:12;;;;;;;2.97;1.05;;;;;;;;;;5018863;28;20117;-82
2023/07/11 10:57:52;;;;;;;2.47;0.98;;;;;;;;;;5031251;28;20087;-81
2023/07/11 11:00:19;;;;;;;4.70;1.30;;;;;;;;;;5048843;28;20080;-81
2023/07/11 11:03:20;;;;;;;2.50;1.00;;;;;;;;;;5035374;28;20519;-82
2023/07/11 11:05:57;;;;;;;3.40;1.10;;;;;;;;;;5014400;28;20594;-81
2023/07/11 11:08:42;;;;;;;11.23;1.17;;;;;;;;;;5037782;28;20040;-82
2023/07/11 11:11:33;;;;;;;3.08;1.30;;;;;;;;;;5016685;28;20029;-81
2023/07/11 11:14:01;;;;;;;2.70;1.20;;;;;;;;;;5048020;28;20763;-82
2023/07/11 11:16:32;;;;;;;2.97;1.00;;;;;;;;;;5039769;28;20033;-81
2023/07/11 11:19:10;;;;;;;3.45;1.35;;;;;;;;;;5024201;28;20485;-82
2023/07/11 11:22:34;;;;;;;2.75;1.05;;;;;;;;;;5035174;28;20029;-81
2023/07/11 11:25:02;;;;;;;3.42;1.13;;;;;;;;;;4983304;28;20035;-81
2023/07/11 11:27:38;;;;;;;3.08;1.10;;;;;;;;;;4948131;28;20082;-81
2023/07/11 11:30:10;;;;;;;3.83;1.10;;;;;;;;;;4995228;28;20037;-82
2023/07/11 11:32:53;;;;;;;3.78;1.20;;;;;;;;;;5033313;28;20037;-81
2023/07/11 11:35:39;;;;;;;2.70;1.10;;;;;;;;;;5042598;28;20052;-81
2023/07/11 11:38:29;;;;;;;3.47;1.10;;;;;;;;;;5033817;28;20041;-82
2023/07/11 11:40:58;;;;;;;3.03;1.20;;;;;;;;;;5049239;28;20033;-83
2023/07/11 11:43:25;;;;;;;2.97;1.10;;;;;;;;;;5026259;28;20705;-83
2023/07/11 11:45:51;;;;;;;3.95;2.05;;;;;;;;;;5025281;28;20057;-84
2023/07/11 11:48:20;;;;;;;5.23;1.13;;;;;;;;;;5035613;28;20404;-83
2023/07/11 11:50:47;;;;;;;2.55;1.10;;;;;;;;;;5019334;28;20037;-83
2023/07/11 11:53:22;;;;;;;;;;;;;;;;;;5018056;28;20418;-83
2023/07/11 11:55:50;;;;;;;3.13;1.10;;;;;;;;;;5041695;28;19913;-83
2023/07/11 11:58:17;;;;;;;2.92;1.10;;;;;;;;;;5051184;28;20040;-82
2023/07/11 12:00:48;;;;;;;2.35;1.00;;;;;;;;;;5033092;28;20045;-83
2023/07/11 12:03:40;;;;;;;3.17;1.13;;;;;;;;;;5013220;28;20037;-81
2023/07/11 12:06:27;;;;;;;2.80;1.10;;;;;;;;;;5017024;28;20075;-81
2023/07/11 12:09:23;;;;;;;2.83;1.10;;;;;;;;;;5014387;28;20071;-86
2023/07/11 12:12:11;;;;;;;3.55;1.20;;;;;;;;;;5033916;28;20532;-88
2023/07/11 12:14:38;;;;;;;3.58;1.45;;;;;;;;;;5031505;28;20120;-85
2023/07/11 12:17:04;;;;;;;3.60;1.50;;;;;;;;;;5025059;28;20104;-85
2023/07/11 12:19:29;;;;;;;2.53;1.48;;;;;;;;;;5033279;28;20132;-86
2023/07/11 12:22:01;;;;;;;2.85;1.30;;;;;;;;;;5022159;28;21090;-85
2023/07/11 12:24:35;;;;;;;2.80;1.08;;;;;;;;;;5013826;28;20732;-85
2023/07/11 12:27:16;;;;;;;3.33;1.40;;;;;;;;;;5036589;28;20040;-85
2023/07/11 12:29:50;;;;;;;2.75;1.20;;;;;;;;;;5012068;28;20029;-86
2023/07/11 12:32:31;;;;;;;3.50;1.20;;;;;;;;;;5019909;28;20041;-86
2023/07/11 12:34:58;;;;;;;2.95;1.20;;;;;;;;;;5048359;28;20133;-85
2023/07/11 12:37:26;;;;;;;2.50;1.20;;;;;;;;;;5008772;28;20577;-85
2023/07/11 12:40:14;;;;;;;3.42;1.30;;;;;;;;;;5011115;28;20114;-86
2023/07/11 12:42:49;;;;;;;2.72;1.40;;;;;;;;;;5022272;28;20033;-84
2023/07/11 12:45:16;;;;;;;3.85;1.52;;;;;;;;;;5021016;28;20041;-86
2023/07/11 12:47:46;;;;;;;5.50;1.67;;;;;;;;;;5014050;28;20568;-86
2023/07/11 12:50:25;;;;;;;3.88;1.50;;;;;;;;;;5017491;28;20036;-86
2023/07/11 12:53:02;;;;;;;5.55;1.92;;;;;;;;;;5025665;28;20033;-86
2023/07/11 12:55:28;;;;;;;3.42;1.60;;;;;;;;;;5013361;28;20029;-85
2023/07/11 12:57:54;;;;;;;3.83;1.48;;;;;;;;;;5018586;28;20041;-85
2023/07/11 13:00:21;;;;;;;2.80;1.48;;;;;;;;;;5035240;28;20557;-85
2023/07/11 13:02:50;;;;;;;4.03;1.50;;;;;;;;;;5008295;28;20033;-83
2023/07/11 13:05:16;;;;;;;4.00;1.52;;;;;;;;;;5034327;28;20049;-84
2023/07/11 13:07:41;;;;;;;5.53;1.52;;;;;;;;;;5037545;28;20038;-84
2023/07/11 13:10:24;;;;;;;3.38;1.65;;;;;;;;;;5018842;28;20376;-84
2023/07/11 13:12:54;;;;;;;3.83;1.40;;;;;;;;;;5034610;28;20040;-84
2023/07/11 13:15:43;;;;;;;5.35;1.75;;;;;;;;;;5034351;28;20037;-85
2023/07/11 13:18:31;;;;;;;4.10;1.75;;;;;;;;;;4976809;28;20064;-82
2023/07/11 13:20:58;;;;;;;3.97;1.30;;;;;;;;;;4960943;28;20514;-82
2023/07/11 13:23:26;;;;;;;3.95;1.60;;;;;;;;;;4957846;28;20095;-85
2023/07/11 13:25:53;;;;;;;3.15;1.60;;;;;;;;;;4955917;28;20046;-85
2023/07/11 13:28:46;;;;;;;3.67;1.60;;;;;;;;;;4949212;28;20030;-84
2023/07/11 13:31:23;;;;;;;3.50;1.40;;;;;;;;;;4925301;29;20055;-86
2023/07/11 13:34:16;;;;;;;3.15;1.40;;;;;;;;;;4914164;29;20059;-86
2023/07/11 13:36:44;;;;;;;4.20;1.67;;;;;;;;;;4903379;29;20091;-84
2023/07/11 13:39:24;;;;;;;4.03;1.48;;;;;;;;;;4908257;29;20036;-83
2023/07/11 13:41:55;;;;;;;3.88;2.05;;;;;;;;;;4911490;29;20039;-85
2023/07/11 13:44:28;;;;;;;4.13;1.65;;;;;;;;;;4904684;29;20576;-85
2023/07/11 13:46:54;;;;;;;3.85;1.42;;;;;;;;;;4907749;29;20048;-84
2023/07/11 13:49:25;;;;;;;2.57;1.07;;;;;;;;;;4895323;29;20072;-83
2023/07/11 13:51:57;;;;;;;2.83;1.20;;;;;;;;;;4901102;29;20556;-85
2023/07/11 13:54:29;;;;;;;3.45;1.40;;;;;;;;;;4895224;28;20045;-85
2023/07/11 13:56:54;;;;;;;2.88;1.30;;;;;;;;;;4942618;28;20311;-84
2023/07/11 13:59:19;;;;;;;4.37;1.60;;;;;;;;;;4949127;28;20038;-83
2023/07/11 14:01:48;;;;;;;3.27;1.30;;;;;;;;;;4939943;28;20031;-82
2023/07/11 14:04:20;;;;;;;2.75;1.45;;;;;;;;;;4947824;28;20162;-81
2023/07/11 14:06:46;;;;;;;3.30;1.40;;;;;;;;;;4949854;28;20193;-82
2023/07/11 14:09:12;;;;;;;3.00;1.50;;;;;;;;;;5037604;28;20593;-82
2023/07/11 14:11:38;;;;;;;4.30;1.52;;;;;;;;;;5014216;28;20033;-82
2023/07/11 14:14:10;;;;;;;3.77;1.70;;;;;;;;;;5022044;28;20033;-82
2023/07/11 14:16:38;;;;;;;5.15;1.73;;;;;;;;;;5027422;28;20591;-82
2023/07/11 14:19:26;;;;;;;4.20;1.63;;;;;;;;;;5026773;28;20029;-83
2023/07/11 14:21:52;;;;;;;4.03;1.70;;;;;;;;;;5029523;28;20076;-82
2023/07/11 14:24:20;;;;;;;4.95;1.67;;;;;;;;;;5021566;28;20085;-82
2023/07/11 14:26:46;;;;;;;4.32;1.75;;;;;;;;;;5020220;28;20033;-82
2023/07/11 14:29:20;;;;;;;5.53;2.10;;;;;;;;;;5022545;28;20037;-81
2023/07/11 14:31:48;;;;;;;4.95;1.88;;;;;;;;;;5026579;28;20083;-81
2023/07/11 14:34:25;;;;;;;5.82;2.17;;;;;;;;;;5023666;28;20164;-82
2023/07/11 14:36:51;;;;;;;5.07;2.10;;;;;;;;;;5024026;28;20037;-81
2023/07/11 14:39:18;;;;;;;4.78;2.30;;;;;;;;;;5026139;28;20045;-81
2023/07/11 14:42:04;;;;;;;3.80;2.40;;;;;;;;;;5023327;28;20562;-81
2023/07/11 14:44:30;;;;;;;;;;;;;;;;;;4962638;28;20034;-82
2023/07/11 14:47:00;;;;;;;4.67;2.27;;;;;;;;;;4944558;28;19922;-82
2023/07/11 14:49:31;;;;;;;3.55;2.00;;;;;;;;;;4949098;28;20074;-82
2023/07/11 14:51:56;;;;;;;4.72;2.03;;;;;;;;;;4930714;28;20470;-82
2023/07/11 14:54:29;;;;;;;4.30;2.20;;;;;;;;;;4947996;28;20039;-82
2023/07/11 14:56:55;;;;;;;7.53;2.20;;;;;;;;;;4948771;28;20039;-83
2023/07/11 14:59:23;;;;;;;4.53;2.20;;;;;;;;;;4939031;28;20086;-82
2023/07/11 15:01:50;;;;;;;4.43;2.22;;;;;;;;;;4946001;28;20577;-82